sensor_id;sensor_type;location;lat;lon;timestamp;P1;durP1;ratioP1;P2;durP2;ratioP2
19854;SDS011;10088;47.946;2.532;2022-09-09T00:06:42;7.20;;;1.30;;
19854;SDS011;10088;47.946;2.532;2022-09-09T00:09:18;8.30;;;1.37;;
19854;SDS011;10088;47.946;2.532;2022-09-09T00:12:04;2.57;;;1.57;;
19854;SDS011;10088;47.946;2.532;2022-09-09T00:16:56;12.63;;;1.73;;
19854;SDS011;10088;47.946;2.532;2022-09-09T00:19:30;7.43;;;1.30;;
19854;SDS011;10088;47.946;2.532;2022-09-09T00:24:53;5.50;;;1.20;;
19854;SDS011;10088;47.946;2.532;2022-09-09T00:27:27;9.03;;;1.83;;
19854;SDS011;10088;47.946;2.532;2022-09-09T00:30:12;4.97;;;1.30;;
19854;SDS011;10088;47.946;2.532;2022-09-09T00:32:37;7.17;;;1.67;;
19854;SDS011;10088;47.946;2.532;2022-09-09T00:35:14;9.30;;;1.40;;
19854;SDS011;10088;47.946;2.532;2022-09-09T00:37:41;6.87;;;1.50;;
19854;SDS011;10088;47.946;2.532;2022-09-09T00:40:18;8.17;;;1.97;;
19854;SDS011;10088;47.946;2.532;2022-09-09T00:42:44;7.37;;;1.60;;
19854;SDS011;10088;47.946;2.532;2022-09-09T00:47:46;11.23;;;2.17;;
19854;SDS011;10088;47.946;2.532;2022-09-09T00:53:11;7.83;;;1.83;;
19854;SDS011;10088;47.946;2.532;2022-09-09T00:57:57;8.10;;;1.70;;
19854;SDS011;10088;47.946;2.532;2022-09-09T01:00:27;8.53;;;1.63;;
19854;SDS011;10088;47.946;2.532;2022-09-09T01:02:57;3.63;;;1.50;;
19854;SDS011;10088;47.946;2.532;2022-09-09T01:07:53;7.43;;;1.87;;
19854;SDS011;10088;47.946;2.532;2022-09-09T01:13:04;6.60;;;1.63;;
19854;SDS011;10088;47.946;2.532;2022-09-09T01:15:33;8.67;;;1.57;;
19854;SDS011;10088;47.946;2.532;2022-09-09T01:20:27;6.53;;;1.70;;
19854;SDS011;10088;47.946;2.532;2022-09-09T01:28:08;4.83;;;1.63;;
19854;SDS011;10088;47.946;2.532;2022-09-09T01:30:35;6.27;;;1.87;;
19854;SDS011;10088;47.946;2.532;2022-09-09T01:33:01;10.20;;;1.97;;
19854;SDS011;10088;47.946;2.532;2022-09-09T01:37:52;12.37;;;1.70;;
19854;SDS011;10088;47.946;2.532;2022-09-09T01:40:18;12.43;;;2.27;;
19854;SDS011;10088;47.946;2.532;2022-09-09T01:42:43;6.03;;;1.67;;
19854;SDS011;10088;47.946;2.532;2022-09-09T01:45:08;7.40;;;1.67;;
19854;SDS011;10088;47.946;2.532;2022-09-09T01:47:34;12.17;;;2.10;;
19854;SDS011;10088;47.946;2.532;2022-09-09T01:50:00;8.23;;;1.67;;
19854;SDS011;10088;47.946;2.532;2022-09-09T01:52:26;9.50;;;1.50;;
19854;SDS011;10088;47.946;2.532;2022-09-09T01:54:51;11.33;;;2.00;;
19854;SDS011;10088;47.946;2.532;2022-09-09T02:02:17;8.53;;;1.80;;
19854;SDS011;10088;47.946;2.532;2022-09-09T02:04:54;10.07;;;1.37;;
19854;SDS011;10088;47.946;2.532;2022-09-09T02:07:32;8.20;;;2.03;;
19854;SDS011;10088;47.946;2.532;2022-09-09T02:12:42;10.70;;;2.30;;
19854;SDS011;10088;47.946;2.532;2022-09-09T02:15:17;7.67;;;1.93;;
19854;SDS011;10088;47.946;2.532;2022-09-09T02:17:45;10.33;;;2.37;;
19854;SDS011;10088;47.946;2.532;2022-09-09T02:20:13;6.70;;;1.70;;
19854;SDS011;10088;47.946;2.532;2022-09-09T02:22:39;10.10;;;2.10;;
19854;SDS011;10088;47.946;2.532;2022-09-09T02:25:06;6.43;;;1.93;;
19854;SDS011;10088;47.946;2.532;2022-09-09T02:27:33;11.37;;;2.50;;
19854;SDS011;10088;47.946;2.532;2022-09-09T02:29:59;6.93;;;1.70;;
19854;SDS011;10088;47.946;2.532;2022-09-09T02:32:27;9.87;;;2.37;;
19854;SDS011;10088;47.946;2.532;2022-09-09T02:35:17;9.67;;;2.10;;
19854;SDS011;10088;47.946;2.532;2022-09-09T02:37:41;7.40;;;1.60;;
19854;SDS011;10088;47.946;2.532;2022-09-09T02:40:09;12.70;;;2.57;;
19854;SDS011;10088;47.946;2.532;2022-09-09T02:42:42;11.30;;;2.47;;
19854;SDS011;10088;47.946;2.532;2022-09-09T02:45:08;7.80;;;1.80;;
19854;SDS011;10088;47.946;2.532;2022-09-09T02:57:47;6.73;;;1.77;;
19854;SDS011;10088;47.946;2.532;2022-09-09T03:00:13;10.17;;;2.00;;
19854;SDS011;10088;47.946;2.532;2022-09-09T03:02:39;9.37;;;1.87;;
19854;SDS011;10088;47.946;2.532;2022-09-09T03:05:05;7.93;;;1.73;;
19854;SDS011;10088;47.946;2.532;2022-09-09T03:07:31;10.27;;;1.87;;
19854;SDS011;10088;47.946;2.532;2022-09-09T03:09:56;8.87;;;1.80;;
19854;SDS011;10088;47.946;2.532;2022-09-09T03:12:21;10.50;;;2.60;;
19854;SDS011;10088;47.946;2.532;2022-09-09T03:14:46;9.10;;;1.73;;
19854;SDS011;10088;47.946;2.532;2022-09-09T03:17:12;10.87;;;3.17;;
19854;SDS011;10088;47.946;2.532;2022-09-09T03:19:37;8.13;;;1.60;;
19854;SDS011;10088;47.946;2.532;2022-09-09T03:22:03;8.40;;;2.27;;
19854;SDS011;10088;47.946;2.532;2022-09-09T03:24:29;8.07;;;1.80;;
19854;SDS011;10088;47.946;2.532;2022-09-09T03:26:54;7.97;;;1.50;;
19854;SDS011;10088;47.946;2.532;2022-09-09T03:29:20;9.50;;;2.17;;
19854;SDS011;10088;47.946;2.532;2022-09-09T03:31:46;9.33;;;2.43;;
19854;SDS011;10088;47.946;2.532;2022-09-09T03:34:12;9.70;;;2.07;;
19854;SDS011;10088;47.946;2.532;2022-09-09T03:36:38;12.57;;;3.23;;
19854;SDS011;10088;47.946;2.532;2022-09-09T03:39:04;14.27;;;2.90;;
19854;SDS011;10088;47.946;2.532;2022-09-09T03:41:29;15.87;;;2.10;;
19854;SDS011;10088;47.946;2.532;2022-09-09T03:43:54;12.00;;;2.70;;
19854;SDS011;10088;47.946;2.532;2022-09-09T03:46:20;9.07;;;2.33;;
19854;SDS011;10088;47.946;2.532;2022-09-09T03:48:46;7.47;;;1.73;;
19854;SDS011;10088;47.946;2.532;2022-09-09T03:51:11;12.73;;;2.10;;
19854;SDS011;10088;47.946;2.532;2022-09-09T03:53:37;8.30;;;2.50;;
19854;SDS011;10088;47.946;2.532;2022-09-09T03:56:03;9.87;;;2.20;;
19854;SDS011;10088;47.946;2.532;2022-09-09T03:58:29;8.97;;;1.50;;
19854;SDS011;10088;47.946;2.532;2022-09-09T04:00:58;10.83;;;2.30;;
19854;SDS011;10088;47.946;2.532;2022-09-09T04:03:24;10.40;;;2.20;;
19854;SDS011;10088;47.946;2.532;2022-09-09T04:05:53;10.63;;;1.77;;
19854;SDS011;10088;47.946;2.532;2022-09-09T04:08:19;11.67;;;2.87;;
19854;SDS011;10088;47.946;2.532;2022-09-09T04:10:45;13.33;;;2.33;;
19854;SDS011;10088;47.946;2.532;2022-09-09T04:13:11;14.30;;;2.13;;
19854;SDS011;10088;47.946;2.532;2022-09-09T04:15:38;13.27;;;2.43;;
19854;SDS011;10088;47.946;2.532;2022-09-09T04:18:03;11.27;;;2.23;;
19854;SDS011;10088;47.946;2.532;2022-09-09T04:20:28;10.50;;;2.77;;
19854;SDS011;10088;47.946;2.532;2022-09-09T04:22:55;13.77;;;1.97;;
19854;SDS011;10088;47.946;2.532;2022-09-09T04:25:20;9.40;;;1.87;;
19854;SDS011;10088;47.946;2.532;2022-09-09T04:27:45;7.73;;;1.70;;
19854;SDS011;10088;47.946;2.532;2022-09-09T04:30:11;9.93;;;2.07;;
19854;SDS011;10088;47.946;2.532;2022-09-09T04:32:37;10.07;;;2.27;;
19854;SDS011;10088;47.946;2.532;2022-09-09T04:35:02;5.63;;;1.50;;
19854;SDS011;10088;47.946;2.532;2022-09-09T04:37:28;6.20;;;1.93;;
19854;SDS011;10088;47.946;2.532;2022-09-09T04:39:53;11.10;;;2.20;;
19854;SDS011;10088;47.946;2.532;2022-09-09T04:42:19;10.27;;;1.80;;
19854;SDS011;10088;47.946;2.532;2022-09-09T04:44:44;11.30;;;2.87;;
19854;SDS011;10088;47.946;2.532;2022-09-09T04:47:10;13.23;;;2.17;;
19854;SDS011;10088;47.946;2.532;2022-09-09T04:49:35;9.63;;;1.87;;
19854;SDS011;10088;47.946;2.532;2022-09-09T04:52:02;10.87;;;2.10;;
19854;SDS011;10088;47.946;2.532;2022-09-09T04:54:27;11.03;;;2.67;;
19854;SDS011;10088;47.946;2.532;2022-09-09T04:56:53;10.33;;;2.33;;
19854;SDS011;10088;47.946;2.532;2022-09-09T04:59:19;13.63;;;2.70;;
19854;SDS011;10088;47.946;2.532;2022-09-09T05:01:45;9.57;;;2.30;;
19854;SDS011;10088;47.946;2.532;2022-09-09T05:04:10;14.23;;;2.47;;
19854;SDS011;10088;47.946;2.532;2022-09-09T05:06:36;10.13;;;2.07;;
19854;SDS011;10088;47.946;2.532;2022-09-09T05:09:01;19.57;;;2.10;;
19854;SDS011;10088;47.946;2.532;2022-09-09T05:11:27;7.73;;;2.10;;
19854;SDS011;10088;47.946;2.532;2022-09-09T05:13:53;14.23;;;2.43;;
19854;SDS011;10088;47.946;2.532;2022-09-09T05:16:18;9.90;;;2.47;;
19854;SDS011;10088;47.946;2.532;2022-09-09T05:18:44;10.00;;;1.83;;
19854;SDS011;10088;47.946;2.532;2022-09-09T05:21:10;11.90;;;3.17;;
19854;SDS011;10088;47.946;2.532;2022-09-09T05:23:35;13.60;;;2.83;;
19854;SDS011;10088;47.946;2.532;2022-09-09T05:26:01;6.53;;;1.70;;
19854;SDS011;10088;47.946;2.532;2022-09-09T05:28:27;8.97;;;1.83;;
19854;SDS011;10088;47.946;2.532;2022-09-09T05:31:25;12.53;;;1.60;;
19854;SDS011;10088;47.946;2.532;2022-09-09T05:33:44;11.20;;;3.90;;
19854;SDS011;10088;47.946;2.532;2022-09-09T05:36:14;10.93;;;2.17;;
19854;SDS011;10088;47.946;2.532;2022-09-09T05:38:41;15.03;;;2.53;;
19854;SDS011;10088;47.946;2.532;2022-09-09T05:41:06;6.40;;;1.90;;
19854;SDS011;10088;47.946;2.532;2022-09-09T05:43:32;8.20;;;1.83;;
19854;SDS011;10088;47.946;2.532;2022-09-09T05:48:33;8.90;;;2.40;;
19854;SDS011;10088;47.946;2.532;2022-09-09T05:50:59;13.53;;;2.43;;
19854;SDS011;10088;47.946;2.532;2022-09-09T05:53:25;10.47;;;2.23;;
19854;SDS011;10088;47.946;2.532;2022-09-09T05:55:57;6.97;;;1.90;;
19854;SDS011;10088;47.946;2.532;2022-09-09T05:58:22;10.53;;;2.13;;
19854;SDS011;10088;47.946;2.532;2022-09-09T06:00:49;6.30;;;2.10;;
19854;SDS011;10088;47.946;2.532;2022-09-09T06:03:15;10.40;;;2.20;;
19854;SDS011;10088;47.946;2.532;2022-09-09T06:05:42;9.83;;;2.33;;
19854;SDS011;10088;47.946;2.532;2022-09-09T06:08:07;10.17;;;2.33;;
19854;SDS011;10088;47.946;2.532;2022-09-09T06:10:32;7.77;;;1.90;;
19854;SDS011;10088;47.946;2.532;2022-09-09T06:12:59;9.37;;;2.03;;
19854;SDS011;10088;47.946;2.532;2022-09-09T06:15:24;7.53;;;2.23;;
19854;SDS011;10088;47.946;2.532;2022-09-09T06:17:53;12.17;;;1.87;;
19854;SDS011;10088;47.946;2.532;2022-09-09T06:20:19;8.40;;;2.10;;
19854;SDS011;10088;47.946;2.532;2022-09-09T06:22:45;8.73;;;1.80;;
19854;SDS011;10088;47.946;2.532;2022-09-09T06:25:11;7.77;;;1.73;;
19854;SDS011;10088;47.946;2.532;2022-09-09T06:27:37;5.90;;;1.80;;
19854;SDS011;10088;47.946;2.532;2022-09-09T06:30:03;9.87;;;2.30;;
19854;SDS011;10088;47.946;2.532;2022-09-09T06:32:28;7.30;;;1.70;;
19854;SDS011;10088;47.946;2.532;2022-09-09T06:34:53;8.73;;;1.63;;
19854;SDS011;10088;47.946;2.532;2022-09-09T06:37:19;9.27;;;1.50;;
19854;SDS011;10088;47.946;2.532;2022-09-09T06:39:45;8.10;;;1.97;;
19854;SDS011;10088;47.946;2.532;2022-09-09T06:42:10;8.57;;;2.20;;
19854;SDS011;10088;47.946;2.532;2022-09-09T06:44:36;2.40;;;0.93;;
19854;SDS011;10088;47.946;2.532;2022-09-09T06:47:01;8.60;;;1.80;;
19854;SDS011;10088;47.946;2.532;2022-09-09T06:49:26;10.37;;;2.60;;
19854;SDS011;10088;47.946;2.532;2022-09-09T06:51:52;9.03;;;1.90;;
19854;SDS011;10088;47.946;2.532;2022-09-09T06:54:17;7.30;;;2.17;;
19854;SDS011;10088;47.946;2.532;2022-09-09T06:56:43;8.20;;;2.27;;
19854;SDS011;10088;47.946;2.532;2022-09-09T06:59:10;8.77;;;1.87;;
19854;SDS011;10088;47.946;2.532;2022-09-09T07:01:41;5.97;;;2.10;;
19854;SDS011;10088;47.946;2.532;2022-09-09T07:04:06;10.87;;;2.30;;
19854;SDS011;10088;47.946;2.532;2022-09-09T07:06:37;9.60;;;2.10;;
19854;SDS011;10088;47.946;2.532;2022-09-09T07:09:04;6.63;;;1.57;;
19854;SDS011;10088;47.946;2.532;2022-09-09T07:11:30;8.20;;;2.07;;
19854;SDS011;10088;47.946;2.532;2022-09-09T07:13:56;8.73;;;1.97;;
19854;SDS011;10088;47.946;2.532;2022-09-09T07:16:22;7.67;;;1.87;;
19854;SDS011;10088;47.946;2.532;2022-09-09T07:18:51;12.27;;;1.87;;
19854;SDS011;10088;47.946;2.532;2022-09-09T07:21:17;6.37;;;1.63;;
19854;SDS011;10088;47.946;2.532;2022-09-09T07:23:42;5.90;;;1.63;;
19854;SDS011;10088;47.946;2.532;2022-09-09T07:26:12;7.50;;;1.80;;
19854;SDS011;10088;47.946;2.532;2022-09-09T07:28:38;5.17;;;1.63;;
19854;SDS011;10088;47.946;2.532;2022-09-09T07:31:04;7.00;;;1.50;;
19854;SDS011;10088;47.946;2.532;2022-09-09T07:33:30;7.90;;;1.60;;
19854;SDS011;10088;47.946;2.532;2022-09-09T07:36:57;5.80;;;1.83;;
19854;SDS011;10088;47.946;2.532;2022-09-09T07:38:58;4.17;;;1.47;;
19854;SDS011;10088;47.946;2.532;2022-09-09T07:41:25;6.20;;;1.67;;
19854;SDS011;10088;47.946;2.532;2022-09-09T07:43:51;7.57;;;1.67;;
19854;SDS011;10088;47.946;2.532;2022-09-09T07:46:18;6.47;;;1.70;;
19854;SDS011;10088;47.946;2.532;2022-09-09T07:48:45;8.13;;;1.50;;
19854;SDS011;10088;47.946;2.532;2022-09-09T07:51:11;10.47;;;1.90;;
19854;SDS011;10088;47.946;2.532;2022-09-09T07:53:40;9.67;;;1.80;;
19854;SDS011;10088;47.946;2.532;2022-09-09T07:56:09;4.80;;;1.20;;
19854;SDS011;10088;47.946;2.532;2022-09-09T07:58:38;9.33;;;1.77;;
19854;SDS011;10088;47.946;2.532;2022-09-09T08:01:08;6.00;;;1.60;;
19854;SDS011;10088;47.946;2.532;2022-09-09T08:03:34;8.63;;;1.80;;
19854;SDS011;10088;47.946;2.532;2022-09-09T08:06:00;4.60;;;1.50;;
19854;SDS011;10088;47.946;2.532;2022-09-09T08:08:26;7.90;;;1.50;;
19854;SDS011;10088;47.946;2.532;2022-09-09T08:10:51;4.50;;;1.60;;
19854;SDS011;10088;47.946;2.532;2022-09-09T08:13:18;8.83;;;1.60;;
19854;SDS011;10088;47.946;2.532;2022-09-09T08:15:43;10.97;;;1.73;;
19854;SDS011;10088;47.946;2.532;2022-09-09T08:18:09;8.23;;;1.93;;
19854;SDS011;10088;47.946;2.532;2022-09-09T08:20:35;6.30;;;1.53;;
19854;SDS011;10088;47.946;2.532;2022-09-09T08:23:01;7.33;;;1.63;;
19854;SDS011;10088;47.946;2.532;2022-09-09T08:25:26;7.77;;;1.70;;
19854;SDS011;10088;47.946;2.532;2022-09-09T08:27:52;7.60;;;1.70;;
19854;SDS011;10088;47.946;2.532;2022-09-09T08:30:17;9.20;;;2.20;;
19854;SDS011;10088;47.946;2.532;2022-09-09T08:32:43;10.90;;;1.70;;
19854;SDS011;10088;47.946;2.532;2022-09-09T08:35:08;6.47;;;1.73;;
19854;SDS011;10088;47.946;2.532;2022-09-09T08:37:33;11.13;;;1.63;;
19854;SDS011;10088;47.946;2.532;2022-09-09T08:39:59;8.70;;;1.73;;
19854;SDS011;10088;47.946;2.532;2022-09-09T08:42:28;7.50;;;1.97;;
19854;SDS011;10088;47.946;2.532;2022-09-09T08:45:14;4.50;;;1.63;;
19854;SDS011;10088;47.946;2.532;2022-09-09T08:50:29;9.57;;;2.00;;
19854;SDS011;10088;47.946;2.532;2022-09-09T08:58:04;11.07;;;1.50;;
19854;SDS011;10088;47.946;2.532;2022-09-09T09:00:38;5.13;;;1.63;;
19854;SDS011;10088;47.946;2.532;2022-09-09T09:05:59;5.40;;;1.30;;
19854;SDS011;10088;47.946;2.532;2022-09-09T09:08:48;5.43;;;1.50;;
19854;SDS011;10088;47.946;2.532;2022-09-09T09:11:11;6.50;;;1.63;;
19854;SDS011;10088;47.946;2.532;2022-09-09T09:16:27;7.60;;;1.70;;
19854;SDS011;10088;47.946;2.532;2022-09-09T09:18:53;7.77;;;2.00;;
19854;SDS011;10088;47.946;2.532;2022-09-09T09:24:00;5.37;;;1.57;;
19854;SDS011;10088;47.946;2.532;2022-09-09T09:26:35;5.20;;;1.37;;
19854;SDS011;10088;47.946;2.532;2022-09-09T09:29:03;6.93;;;1.63;;
19854;SDS011;10088;47.946;2.532;2022-09-09T09:31:34;5.57;;;1.40;;
19854;SDS011;10088;47.946;2.532;2022-09-09T09:33:59;4.57;;;1.20;;
19854;SDS011;10088;47.946;2.532;2022-09-09T09:36:37;9.00;;;1.53;;
19854;SDS011;10088;47.946;2.532;2022-09-09T09:39:04;5.33;;;1.57;;
19854;SDS011;10088;47.946;2.532;2022-09-09T09:41:40;2.97;;;1.23;;
19854;SDS011;10088;47.946;2.532;2022-09-09T09:44:18;5.50;;;1.23;;
19854;SDS011;10088;47.946;2.532;2022-09-09T09:46:46;2.97;;;1.00;;
19854;SDS011;10088;47.946;2.532;2022-09-09T09:49:11;6.73;;;1.10;;
19854;SDS011;10088;47.946;2.532;2022-09-09T09:51:38;3.77;;;1.30;;
19854;SDS011;10088;47.946;2.532;2022-09-09T09:54:09;6.43;;;1.37;;
19854;SDS011;10088;47.946;2.532;2022-09-09T09:56:38;6.33;;;1.30;;
19854;SDS011;10088;47.946;2.532;2022-09-09T09:59:05;4.97;;;1.40;;
19854;SDS011;10088;47.946;2.532;2022-09-09T10:01:31;4.53;;;1.57;;
19854;SDS011;10088;47.946;2.532;2022-09-09T10:04:02;7.27;;;1.43;;
19854;SDS011;10088;47.946;2.532;2022-09-09T10:08:59;4.50;;;1.43;;
19854;SDS011;10088;47.946;2.532;2022-09-09T10:19:29;5.57;;;1.30;;
19854;SDS011;10088;47.946;2.532;2022-09-09T10:22:11;5.63;;;1.50;;
19854;SDS011;10088;47.946;2.532;2022-09-09T10:30:12;10.83;;;1.40;;
19854;SDS011;10088;47.946;2.532;2022-09-09T10:32:41;4.17;;;1.40;;
19854;SDS011;10088;47.946;2.532;2022-09-09T10:57:05;5.50;;;1.20;;
19854;SDS011;10088;47.946;2.532;2022-09-09T10:59:38;4.80;;;1.50;;
19854;SDS011;10088;47.946;2.532;2022-09-09T11:02:16;4.03;;;1.03;;
19854;SDS011;10088;47.946;2.532;2022-09-09T11:05:14;10.43;;;1.50;;
19854;SDS011;10088;47.946;2.532;2022-09-09T11:10:22;10.00;;;1.50;;
19854;SDS011;10088;47.946;2.532;2022-09-09T11:13:00;6.00;;;1.60;;
19854;SDS011;10088;47.946;2.532;2022-09-09T11:15:36;7.17;;;1.20;;
19854;SDS011;10088;47.946;2.532;2022-09-09T11:18:21;7.03;;;1.30;;
19854;SDS011;10088;47.946;2.532;2022-09-09T11:20:48;5.27;;;1.20;;
19854;SDS011;10088;47.946;2.532;2022-09-09T11:23:17;5.70;;;1.13;;
19854;SDS011;10088;47.946;2.532;2022-09-09T11:25:46;4.23;;;1.13;;
19854;SDS011;10088;47.946;2.532;2022-09-09T11:33:44;7.00;;;1.40;;
19854;SDS011;10088;47.946;2.532;2022-09-09T11:41:32;7.37;;;1.70;;
19854;SDS011;10088;47.946;2.532;2022-09-09T11:43:58;7.33;;;1.43;;
19854;SDS011;10088;47.946;2.532;2022-09-09T11:46:31;8.40;;;1.00;;
19854;SDS011;10088;47.946;2.532;2022-09-09T11:49:03;5.60;;;1.63;;
19854;SDS011;10088;47.946;2.532;2022-09-09T11:51:29;1.97;;;0.80;;
19854;SDS011;10088;47.946;2.532;2022-09-09T11:53:56;2.50;;;0.80;;
19854;SDS011;10088;47.946;2.532;2022-09-09T11:59:05;4.03;;;1.00;;
19854;SDS011;10088;47.946;2.532;2022-09-09T12:06:52;6.67;;;0.97;;
19854;SDS011;10088;47.946;2.532;2022-09-09T12:11:43;4.17;;;0.80;;
19854;SDS011;10088;47.946;2.532;2022-09-09T12:14:18;3.40;;;0.87;;
19854;SDS011;10088;47.946;2.532;2022-09-09T12:16:45;3.50;;;0.93;;
19854;SDS011;10088;47.946;2.532;2022-09-09T12:19:14;3.40;;;1.10;;
19854;SDS011;10088;47.946;2.532;2022-09-09T12:24:09;2.80;;;1.00;;
19854;SDS011;10088;47.946;2.532;2022-09-09T12:32:04;3.87;;;0.90;;
19854;SDS011;10088;47.946;2.532;2022-09-09T12:34:35;2.23;;;0.77;;
19854;SDS011;10088;47.946;2.532;2022-09-09T12:39:38;4.53;;;1.03;;
19854;SDS011;10088;47.946;2.532;2022-09-09T12:42:15;2.87;;;0.90;;
19854;SDS011;10088;47.946;2.532;2022-09-09T12:44:49;3.23;;;0.80;;
19854;SDS011;10088;47.946;2.532;2022-09-09T12:47:15;4.20;;;1.00;;
19854;SDS011;10088;47.946;2.532;2022-09-09T12:49:40;4.07;;;1.07;;
19854;SDS011;10088;47.946;2.532;2022-09-09T12:54:38;1.50;;;0.60;;
19854;SDS011;10088;47.946;2.532;2022-09-09T12:57:10;3.37;;;1.00;;
19854;SDS011;10088;47.946;2.532;2022-09-09T12:59:36;2.13;;;0.80;;
19854;SDS011;10088;47.946;2.532;2022-09-09T13:02:09;4.03;;;1.20;;
19854;SDS011;10088;47.946;2.532;2022-09-09T13:04:36;3.33;;;0.73;;
19854;SDS011;10088;47.946;2.532;2022-09-09T13:07:05;2.37;;;0.80;;
19854;SDS011;10088;47.946;2.532;2022-09-09T13:09:31;3.10;;;0.70;;
19854;SDS011;10088;47.946;2.532;2022-09-09T13:11:57;2.90;;;0.70;;
19854;SDS011;10088;47.946;2.532;2022-09-09T13:14:30;2.40;;;0.60;;
19854;SDS011;10088;47.946;2.532;2022-09-09T13:17:01;2.00;;;0.77;;
19854;SDS011;10088;47.946;2.532;2022-09-09T13:19:37;1.73;;;0.60;;
19854;SDS011;10088;47.946;2.532;2022-09-09T13:24:48;1.37;;;0.70;;
19854;SDS011;10088;47.946;2.532;2022-09-09T13:29:52;3.53;;;1.00;;
19854;SDS011;10088;47.946;2.532;2022-09-09T13:32:21;1.73;;;0.60;;
19854;SDS011;10088;47.946;2.532;2022-09-09T13:34:51;1.83;;;0.53;;
19854;SDS011;10088;47.946;2.532;2022-09-09T13:37:36;3.33;;;0.80;;
19854;SDS011;10088;47.946;2.532;2022-09-09T13:40:02;2.77;;;0.70;;
19854;SDS011;10088;47.946;2.532;2022-09-09T13:42:28;4.57;;;0.70;;
19854;SDS011;10088;47.946;2.532;2022-09-09T13:44:55;2.83;;;0.83;;
19854;SDS011;10088;47.946;2.532;2022-09-09T13:47:22;1.33;;;0.63;;
19854;SDS011;10088;47.946;2.532;2022-09-09T13:49:51;1.67;;;0.60;;
19854;SDS011;10088;47.946;2.532;2022-09-09T13:52:17;2.70;;;0.80;;
19854;SDS011;10088;47.946;2.532;2022-09-09T13:54:47;3.00;;;0.80;;
19854;SDS011;10088;47.946;2.532;2022-09-09T13:59:42;1.87;;;0.70;;
19854;SDS011;10088;47.946;2.532;2022-09-09T14:02:07;2.73;;;0.77;;
19854;SDS011;10088;47.946;2.532;2022-09-09T14:04:33;2.50;;;0.97;;
19854;SDS011;10088;47.946;2.532;2022-09-09T14:07:00;3.10;;;1.10;;
19854;SDS011;10088;47.946;2.532;2022-09-09T14:09:25;1.93;;;0.50;;
19854;SDS011;10088;47.946;2.532;2022-09-09T14:11:50;2.93;;;1.50;;
19854;SDS011;10088;47.946;2.532;2022-09-09T14:14:15;4.93;;;1.00;;
19854;SDS011;10088;47.946;2.532;2022-09-09T14:16:41;2.17;;;0.50;;
19854;SDS011;10088;47.946;2.532;2022-09-09T14:19:07;2.30;;;0.83;;
19854;SDS011;10088;47.946;2.532;2022-09-09T14:21:32;2.83;;;0.70;;
19854;SDS011;10088;47.946;2.532;2022-09-09T14:23:58;3.60;;;1.10;;
19854;SDS011;10088;47.946;2.532;2022-09-09T14:26:23;2.43;;;0.87;;
19854;SDS011;10088;47.946;2.532;2022-09-09T14:28:49;2.83;;;0.73;;
19854;SDS011;10088;47.946;2.532;2022-09-09T14:31:15;3.63;;;1.17;;
19854;SDS011;10088;47.946;2.532;2022-09-09T14:33:42;3.17;;;0.90;;
19854;SDS011;10088;47.946;2.532;2022-09-09T14:36:08;3.80;;;1.00;;
19854;SDS011;10088;47.946;2.532;2022-09-09T14:38:35;3.20;;;0.70;;
19854;SDS011;10088;47.946;2.532;2022-09-09T14:41:03;2.77;;;0.87;;
19854;SDS011;10088;47.946;2.532;2022-09-09T14:43:29;3.27;;;0.90;;
19854;SDS011;10088;47.946;2.532;2022-09-09T14:45:57;3.93;;;0.80;;
19854;SDS011;10088;47.946;2.532;2022-09-09T14:48:23;3.63;;;1.00;;
19854;SDS011;10088;47.946;2.532;2022-09-09T14:50:48;3.93;;;0.90;;
19854;SDS011;10088;47.946;2.532;2022-09-09T14:53:14;5.60;;;1.00;;
19854;SDS011;10088;47.946;2.532;2022-09-09T14:55:41;3.30;;;0.80;;
19854;SDS011;10088;47.946;2.532;2022-09-09T14:58:07;3.17;;;1.00;;
19854;SDS011;10088;47.946;2.532;2022-09-09T15:00:32;2.93;;;0.70;;
19854;SDS011;10088;47.946;2.532;2022-09-09T15:02:57;2.43;;;0.83;;
19854;SDS011;10088;47.946;2.532;2022-09-09T15:05:23;3.90;;;1.03;;
19854;SDS011;10088;47.946;2.532;2022-09-09T15:07:49;2.70;;;1.07;;
19854;SDS011;10088;47.946;2.532;2022-09-09T15:10:14;2.93;;;0.80;;
19854;SDS011;10088;47.946;2.532;2022-09-09T15:12:40;3.33;;;1.00;;
19854;SDS011;10088;47.946;2.532;2022-09-09T15:15:07;4.40;;;1.10;;
19854;SDS011;10088;47.946;2.532;2022-09-09T15:17:32;3.37;;;0.90;;
19854;SDS011;10088;47.946;2.532;2022-09-09T15:19:57;5.27;;;0.93;;
19854;SDS011;10088;47.946;2.532;2022-09-09T15:22:23;2.97;;;0.97;;
19854;SDS011;10088;47.946;2.532;2022-09-09T15:24:49;3.10;;;0.80;;
19854;SDS011;10088;47.946;2.532;2022-09-09T15:27:14;2.67;;;0.63;;
19854;SDS011;10088;47.946;2.532;2022-09-09T15:29:40;2.03;;;0.53;;
19854;SDS011;10088;47.946;2.532;2022-09-09T15:32:05;3.10;;;0.80;;
19854;SDS011;10088;47.946;2.532;2022-09-09T15:34:31;2.37;;;0.60;;
19854;SDS011;10088;47.946;2.532;2022-09-09T15:36:56;4.70;;;1.07;;
19854;SDS011;10088;47.946;2.532;2022-09-09T15:39:21;2.83;;;0.70;;
19854;SDS011;10088;47.946;2.532;2022-09-09T15:41:47;3.67;;;0.80;;
19854;SDS011;10088;47.946;2.532;2022-09-09T15:44:13;3.73;;;0.93;;
19854;SDS011;10088;47.946;2.532;2022-09-09T15:46:46;3.40;;;0.80;;
19854;SDS011;10088;47.946;2.532;2022-09-09T15:49:18;3.17;;;0.90;;
19854;SDS011;10088;47.946;2.532;2022-09-09T15:51:44;1.83;;;0.60;;
19854;SDS011;10088;47.946;2.532;2022-09-09T15:54:14;3.70;;;0.57;;
19854;SDS011;10088;47.946;2.532;2022-09-09T15:56:41;3.63;;;0.80;;
19854;SDS011;10088;47.946;2.532;2022-09-09T15:59:07;2.67;;;0.50;;
19854;SDS011;10088;47.946;2.532;2022-09-09T16:01:32;3.37;;;0.60;;
19854;SDS011;10088;47.946;2.532;2022-09-09T16:03:58;2.37;;;0.60;;
19854;SDS011;10088;47.946;2.532;2022-09-09T16:06:25;4.27;;;0.70;;
19854;SDS011;10088;47.946;2.532;2022-09-09T16:08:53;1.37;;;0.50;;
19854;SDS011;10088;47.946;2.532;2022-09-09T16:11:29;3.87;;;0.70;;
19854;SDS011;10088;47.946;2.532;2022-09-09T16:13:56;2.73;;;0.80;;
19854;SDS011;10088;47.946;2.532;2022-09-09T16:16:23;2.13;;;0.70;;
19854;SDS011;10088;47.946;2.532;2022-09-09T16:18:53;3.27;;;0.70;;
19854;SDS011;10088;47.946;2.532;2022-09-09T16:23:51;3.57;;;0.70;;
19854;SDS011;10088;47.946;2.532;2022-09-09T16:26:18;3.47;;;0.70;;
19854;SDS011;10088;47.946;2.532;2022-09-09T16:28:44;3.03;;;0.50;;
19854;SDS011;10088;47.946;2.532;2022-09-09T16:31:12;2.43;;;0.70;;
19854;SDS011;10088;47.946;2.532;2022-09-09T16:33:39;3.33;;;0.60;;
19854;SDS011;10088;47.946;2.532;2022-09-09T16:36:08;4.23;;;0.87;;
19854;SDS011;10088;47.946;2.532;2022-09-09T16:38:33;3.93;;;0.70;;
19854;SDS011;10088;47.946;2.532;2022-09-09T16:41:00;3.13;;;1.00;;
19854;SDS011;10088;47.946;2.532;2022-09-09T16:43:26;4.80;;;0.70;;
19854;SDS011;10088;47.946;2.532;2022-09-09T16:45:55;4.80;;;1.00;;
19854;SDS011;10088;47.946;2.532;2022-09-09T16:48:24;1.70;;;0.67;;
19854;SDS011;10088;47.946;2.532;2022-09-09T16:50:52;2.23;;;0.60;;
19854;SDS011;10088;47.946;2.532;2022-09-09T16:53:23;3.77;;;1.00;;
19854;SDS011;10088;47.946;2.532;2022-09-09T16:55:52;5.83;;;1.10;;
19854;SDS011;10088;47.946;2.532;2022-09-09T16:58:20;3.27;;;0.90;;
19854;SDS011;10088;47.946;2.532;2022-09-09T17:00:49;3.30;;;0.87;;
19854;SDS011;10088;47.946;2.532;2022-09-09T17:03:20;5.13;;;1.00;;
19854;SDS011;10088;47.946;2.532;2022-09-09T17:05:50;4.03;;;1.03;;
19854;SDS011;10088;47.946;2.532;2022-09-09T17:08:15;3.10;;;0.87;;
19854;SDS011;10088;47.946;2.532;2022-09-09T17:10:42;3.17;;;0.90;;
19854;SDS011;10088;47.946;2.532;2022-09-09T17:13:12;4.87;;;0.93;;
19854;SDS011;10088;47.946;2.532;2022-09-09T17:15:42;4.47;;;1.07;;
19854;SDS011;10088;47.946;2.532;2022-09-09T17:18:12;7.30;;;1.00;;
19854;SDS011;10088;47.946;2.532;2022-09-09T17:20:40;4.23;;;0.93;;
19854;SDS011;10088;47.946;2.532;2022-09-09T17:23:11;1.97;;;0.80;;
19854;SDS011;10088;47.946;2.532;2022-09-09T17:25:45;2.47;;;0.77;;